createdAt,value
2023-04-27T00:00:01.625Z,6.80
2023-04-27T00:02:37.544Z,7.17
2023-04-27T00:05:07.106Z,7.53
2023-04-27T00:07:39.175Z,7.77
2023-04-27T00:10:08.657Z,7.70
2023-04-27T00:12:37.004Z,7.40
2023-04-27T00:15:07.752Z,10.20
2023-04-27T00:17:36.041Z,9.27
2023-04-27T00:20:05.400Z,9.67
2023-04-27T00:22:33.693Z,9.20
2023-04-27T00:25:03.236Z,7.87
2023-04-27T00:27:31.441Z,7.60
2023-04-27T00:29:59.650Z,8.33
2023-04-27T00:32:28.628Z,9.07
2023-04-27T00:34:57.050Z,8.77
2023-04-27T00:37:25.292Z,10.10
2023-04-27T00:39:53.714Z,8.70
2023-04-27T00:42:25.117Z,8.80
2023-04-27T00:44:53.415Z,9.63
2023-04-27T00:47:21.742Z,8.33
2023-04-27T00:49:50.485Z,10.60
2023-04-27T00:52:19.517Z,9.83
2023-04-27T00:54:51.769Z,9.27
2023-04-27T00:57:23.412Z,7.53
2023-04-27T00:59:51.940Z,9.07
2023-04-27T01:02:20.298Z,8.57
2023-04-27T01:04:50.519Z,9.03
2023-04-27T01:07:18.766Z,8.23
2023-04-27T01:09:47.079Z,8.70
2023-04-27T01:12:17.342Z,9.60
2023-04-27T01:14:47.050Z,8.03
2023-04-27T01:17:15.273Z,8.17
2023-04-27T01:19:45.244Z,8.53
2023-04-27T01:22:15.198Z,7.23
2023-04-27T01:24:44.789Z,7.40
2023-04-27T01:27:13.193Z,7.40
2023-04-27T01:29:41.528Z,8.27
2023-04-27T01:32:12.389Z,7.00
2023-04-27T01:34:41.099Z,8.17
2023-04-27T01:37:09.290Z,8.67
2023-04-27T01:39:37.670Z,8.73
2023-04-27T01:42:07.278Z,7.53
2023-04-27T01:44:36.306Z,7.77
2023-04-27T01:47:04.534Z,9.17
2023-04-27T01:49:32.785Z,7.47
2023-04-27T01:52:01.081Z,9.30
2023-04-27T01:54:29.284Z,10.37
2023-04-27T01:56:58.657Z,12.40
2023-04-27T01:59:28.180Z,12.17
2023-04-27T02:01:57.149Z,16.67
2023-04-27T02:04:27.202Z,13.47
2023-04-27T02:06:55.482Z,10.33
2023-04-27T02:09:23.981Z,9.93
2023-04-27T02:11:52.270Z,8.40
2023-04-27T02:14:20.557Z,9.43
2023-04-27T02:16:51.726Z,6.90
2023-04-27T02:19:19.876Z,7.77
2023-04-27T02:21:48.062Z,7.77
2023-04-27T02:24:16.332Z,9.53
2023-04-27T02:26:46.732Z,7.57
2023-04-27T02:29:15.373Z,7.73
2023-04-27T02:31:44.275Z,8.20
2023-04-27T02:34:16.461Z,7.67
2023-04-27T02:36:44.868Z,6.90
2023-04-27T02:39:13.378Z,7.63
2023-04-27T02:41:41.661Z,9.17
2023-04-27T02:44:10.033Z,7.57
2023-04-27T02:46:38.491Z,8.37
2023-04-27T02:49:06.865Z,8.20
2023-04-27T02:51:36.330Z,7.37
2023-04-27T02:54:05.019Z,7.03
2023-04-27T02:56:33.306Z,8.83
2023-04-27T02:59:01.681Z,9.00
2023-04-27T03:01:30.078Z,8.37
2023-04-27T03:03:58.504Z,8.47
2023-04-27T03:06:27.723Z,9.23
2023-04-27T03:08:57.262Z,7.63
2023-04-27T03:11:25.491Z,7.63
2023-04-27T03:13:54.463Z,7.37
2023-04-27T03:16:22.783Z,7.90
2023-04-27T03:18:51.005Z,8.47
2023-04-27T03:21:19.332Z,9.03
2023-04-27T03:23:50.712Z,8.03
2023-04-27T03:26:20.661Z,9.60
2023-04-27T03:28:49.216Z,8.37
2023-04-27T03:31:18.223Z,8.57
2023-04-27T03:33:46.514Z,8.27
2023-04-27T03:36:14.818Z,8.93
2023-04-27T03:38:43.104Z,8.40
2023-04-27T03:41:12.758Z,8.00
2023-04-27T03:43:42.425Z,8.00
2023-04-27T03:46:10.845Z,8.37
2023-04-27T03:48:43.898Z,9.40
2023-04-27T03:51:12.139Z,8.47
2023-04-27T03:53:40.468Z,9.27
2023-04-27T03:56:09.798Z,8.80
2023-04-27T03:58:38.143Z,9.03
2023-04-27T04:01:19.840Z,8.60
2023-04-27T04:03:48.705Z,8.00
2023-04-27T04:06:17.131Z,11.53
2023-04-27T04:08:46.324Z,7.30
2023-04-27T04:11:14.789Z,8.30
2023-04-27T04:13:44.186Z,28.67
2023-04-27T04:16:13.667Z,42.83
2023-04-27T04:18:43.222Z,23.13
2023-04-27T04:21:12.696Z,13.90
2023-04-27T04:23:41.723Z,13.47
2023-04-27T04:26:10.163Z,10.20
2023-04-27T04:28:39.023Z,11.43
2023-04-27T04:31:10.040Z,8.90
2023-04-27T04:33:38.533Z,8.60
2023-04-27T04:36:09.674Z,8.93
2023-04-27T04:38:38.465Z,9.00
2023-04-27T04:41:07.269Z,8.27
2023-04-27T04:43:35.487Z,8.73
2023-04-27T04:46:07.562Z,9.33
2023-04-27T04:48:36.833Z,8.87
2023-04-27T04:51:08.034Z,8.53
2023-04-27T04:53:37.402Z,10.70
2023-04-27T04:56:12.683Z,9.13
2023-04-27T04:58:41.517Z,8.87
2023-04-27T05:01:10.924Z,9.03
2023-04-27T05:03:39.723Z,8.60
2023-04-27T05:06:10.214Z,9.63
2023-04-27T05:08:38.641Z,10.07
2023-04-27T05:11:07.121Z,8.87
2023-04-27T05:13:35.740Z,8.67
2023-04-27T05:16:05.948Z,9.37
2023-04-27T05:18:34.739Z,8.10
2023-04-27T05:21:03.082Z,8.47
2023-04-27T05:23:32.894Z,9.50
2023-04-27T05:26:01.204Z,11.80
2023-04-27T05:28:29.367Z,10.60
2023-04-27T05:30:57.538Z,13.00
2023-04-27T05:33:26.164Z,11.27
2023-04-27T05:35:54.899Z,10.90
2023-04-27T05:38:23.263Z,12.43
2023-04-27T05:40:57.076Z,11.53
2023-04-27T05:43:26.845Z,9.87
2023-04-27T05:45:55.206Z,9.50
2023-04-27T05:48:23.862Z,9.00
2023-04-27T05:51:01.385Z,10.67
2023-04-27T05:53:30.233Z,10.17
2023-04-27T05:56:01.116Z,9.63
2023-04-27T05:58:29.617Z,8.93
2023-04-27T06:00:58.135Z,9.10
2023-04-27T06:03:27.086Z,10.20
2023-04-27T06:05:58.738Z,10.23
2023-04-27T06:08:27.593Z,8.40
2023-04-27T06:10:55.841Z,9.57
2023-04-27T06:13:27.787Z,10.17
2023-04-27T06:15:56.486Z,11.63
2023-04-27T06:18:25.009Z,9.93
2023-04-27T06:20:53.169Z,10.53
2023-04-27T06:23:21.428Z,10.10
2023-04-27T06:25:49.676Z,9.10
2023-04-27T06:28:17.986Z,8.53
2023-04-27T06:30:47.814Z,8.77
2023-04-27T06:33:16.456Z,9.10
2023-04-27T06:35:47.467Z,9.20
2023-04-27T06:38:16.073Z,9.33
2023-04-27T06:40:44.967Z,8.97
2023-04-27T06:43:13.103Z,10.10
2023-04-27T06:45:41.507Z,8.73
2023-04-27T06:48:11.138Z,8.57
2023-04-27T06:50:39.392Z,11.73
2023-04-27T06:53:08.302Z,8.77
2023-04-27T06:55:36.786Z,12.03
2023-04-27T06:58:05.203Z,11.53
2023-04-27T07:00:33.555Z,12.60
2023-04-27T07:03:02.539Z,12.70
2023-04-27T07:05:32.225Z,8.43
2023-04-27T07:08:02.547Z,9.73
2023-04-27T07:10:33.605Z,12.07
2023-04-27T07:13:01.815Z,11.07
2023-04-27T07:15:31.550Z,10.87
2023-04-27T07:17:59.938Z,8.63
2023-04-27T07:20:28.182Z,10.17
2023-04-27T07:22:57.976Z,10.17
2023-04-27T07:25:26.498Z,9.00
2023-04-27T07:27:55.052Z,9.63
2023-04-27T07:30:24.335Z,8.90
2023-04-27T07:32:54.882Z,8.67
2023-04-27T07:35:23.489Z,8.17
2023-04-27T07:37:52.140Z,9.27
2023-04-27T07:40:24.131Z,8.10
2023-04-27T07:42:52.569Z,8.17
2023-04-27T07:45:21.619Z,8.50
2023-04-27T07:47:51.510Z,9.50
2023-04-27T07:50:24.416Z,8.07
2023-04-27T07:52:53.474Z,9.07
2023-04-27T07:55:24.501Z,8.97
2023-04-27T07:57:54.148Z,9.37
2023-04-27T08:00:23.507Z,7.27
2023-04-27T08:02:53.532Z,9.57
2023-04-27T08:05:22.272Z,7.67
2023-04-27T08:07:54.128Z,8.33
2023-04-27T08:10:24.601Z,6.93
2023-04-27T08:12:52.902Z,7.57
2023-04-27T08:15:21.558Z,7.53
2023-04-27T08:17:49.827Z,6.70
2023-04-27T08:20:18.160Z,7.10
2023-04-27T08:22:46.362Z,10.23
2023-04-27T08:25:15.018Z,6.60
2023-04-27T08:27:44.718Z,8.17
2023-04-27T08:30:13.560Z,7.10
2023-04-27T08:32:41.872Z,6.87
2023-04-27T08:35:11.198Z,5.90
2023-04-27T08:37:40.065Z,6.10
2023-04-27T08:40:10.337Z,6.70
2023-04-27T08:42:39.164Z,7.90
2023-04-27T08:45:10.652Z,6.83
2023-04-27T08:47:43.378Z,7.50
2023-04-27T08:50:12.820Z,7.33
2023-04-27T08:52:41.112Z,9.10
2023-04-27T08:55:10.039Z,7.60
2023-04-27T08:57:38.303Z,6.67
2023-04-27T09:00:12.904Z,9.43
2023-04-27T09:02:50.398Z,8.53
2023-04-27T09:05:19.510Z,7.30
2023-04-27T09:08:02.170Z,6.90
2023-04-27T09:10:30.840Z,6.82
2023-04-27T09:13:01.071Z,6.35
2023-04-27T09:15:29.919Z,6.40
2023-04-27T09:17:59.770Z,7.25
2023-04-27T09:20:29.228Z,6.72
2023-04-27T09:22:58.576Z,6.43
2023-04-27T09:25:29.020Z,8.25
2023-04-27T09:27:58.321Z,8.35
2023-04-27T09:30:27.205Z,7.97
2023-04-27T09:32:57.303Z,7.38
2023-04-27T09:35:29.206Z,6.32
2023-04-27T09:37:57.737Z,7.57
2023-04-27T09:40:29.763Z,6.47
2023-04-27T09:43:01.156Z,8.50
2023-04-27T09:45:29.700Z,6.23
2023-04-27T09:47:59.623Z,5.87
2023-04-27T09:50:29.611Z,7.37
2023-04-27T09:52:58.354Z,6.20
2023-04-27T09:55:31.043Z,7.13
2023-04-27T09:58:15.678Z,7.90
2023-04-27T10:00:56.732Z,6.83
2023-04-27T10:03:32.999Z,7.97
2023-04-27T10:06:57.910Z,7.27
2023-04-27T10:09:27.202Z,5.83
2023-04-27T10:11:56.731Z,5.63
2023-04-27T10:14:26.059Z,6.90
2023-04-27T10:16:56.667Z,6.45
2023-04-27T10:19:26.259Z,4.95
2023-04-27T10:22:00.436Z,5.47
2023-04-27T10:24:38.453Z,5.45
2023-04-27T10:27:09.074Z,6.22
2023-04-27T10:29:39.215Z,7.78
2023-04-27T10:32:08.520Z,5.97
2023-04-27T10:34:37.804Z,4.88
2023-04-27T10:37:09.500Z,5.22
2023-04-27T10:39:47.582Z,4.95
2023-04-27T10:42:28.398Z,4.03
2023-04-27T10:44:58.871Z,8.98
2023-04-27T10:47:38.729Z,4.78
2023-04-27T10:50:08.865Z,4.95
2023-04-27T10:52:41.864Z,4.95
2023-04-27T10:55:17.545Z,4.93
2023-04-27T10:57:50.884Z,4.45
2023-04-27T11:00:25.407Z,5.50
2023-04-27T11:02:54.818Z,4.30
2023-04-27T11:05:28.955Z,5.00
2023-04-27T11:08:08.364Z,3.55
2023-04-27T11:10:39.491Z,3.85
2023-04-27T11:13:09.842Z,5.90
2023-04-27T11:15:49.518Z,5.30
2023-04-27T11:18:19.659Z,6.13
2023-04-27T11:20:50.081Z,2.85
2023-04-27T11:23:27.211Z,3.10
2023-04-27T11:25:55.867Z,3.88
2023-04-27T11:28:24.613Z,3.03
2023-04-27T11:30:58.892Z,6.10
2023-04-27T11:33:27.661Z,3.67
2023-04-27T11:35:56.512Z,2.58
2023-04-27T11:38:27.583Z,2.88
2023-04-27T11:41:06.692Z,3.45
2023-04-27T11:43:35.978Z,3.10
2023-04-27T11:46:04.621Z,3.40
2023-04-27T11:48:33.993Z,7.03
2023-04-27T11:51:02.341Z,4.28
2023-04-27T11:53:34.002Z,3.13
2023-04-27T11:56:05.161Z,3.75
2023-04-27T11:58:35.099Z,12.55
2023-04-27T12:01:04.613Z,3.00
2023-04-27T12:03:33.531Z,3.53
2023-04-27T12:08:34.855Z,3.20
2023-04-27T12:11:03.106Z,2.55
2023-04-27T12:13:31.546Z,2.78
2023-04-27T12:16:01.029Z,4.93
2023-04-27T12:18:29.655Z,4.53
2023-04-27T12:21:01.609Z,2.40
2023-04-27T12:23:31.790Z,3.50
2023-04-27T12:26:01.709Z,4.05
2023-04-27T12:28:29.980Z,3.45
2023-04-27T12:30:58.360Z,2.47
2023-04-27T12:33:26.833Z,4.22
2023-04-27T12:35:55.106Z,2.45
2023-04-27T12:38:23.636Z,2.05
2023-04-27T12:40:51.856Z,2.05
2023-04-27T12:43:21.477Z,2.10
2023-04-27T12:45:49.855Z,2.42
2023-04-27T12:48:18.309Z,2.17
2023-04-27T12:50:47.555Z,6.15
2023-04-27T12:53:16.171Z,1.50
2023-04-27T12:55:44.507Z,2.25
2023-04-27T12:58:12.804Z,2.78
2023-04-27T13:00:42.814Z,1.40
2023-04-27T13:03:11.328Z,1.98
2023-04-27T13:05:39.855Z,1.63
2023-04-27T13:08:08.171Z,2.70
2023-04-27T13:10:36.626Z,2.20
2023-04-27T13:13:06.997Z,1.60
2023-04-27T13:15:36.887Z,1.40
2023-04-27T13:18:07.272Z,1.00
2023-04-27T13:20:36.375Z,1.17
2023-04-27T13:23:06.687Z,1.08
2023-04-27T13:25:35.249Z,1.38
2023-04-27T13:28:03.991Z,1.92
2023-04-27T13:30:32.676Z,2.33
2023-04-27T13:33:10.764Z,2.40
2023-04-27T13:35:52.130Z,4.90
2023-04-27T13:38:20.488Z,3.72
2023-04-27T13:40:49.166Z,1.92
2023-04-27T13:43:17.435Z,1.80
2023-04-27T13:45:45.708Z,6.63
2023-04-27T13:48:14.281Z,3.33
2023-04-27T13:50:42.636Z,1.48
2023-04-27T13:53:12.333Z,1.77
2023-04-27T13:55:40.659Z,1.60
2023-04-27T13:58:09.302Z,9.32
2023-04-27T14:00:38.147Z,2.70
2023-04-27T14:03:08.945Z,1.60
2023-04-27T14:05:37.520Z,1.50
2023-04-27T14:08:06.373Z,7.70
2023-04-27T14:10:37.630Z,3.10
2023-04-27T14:13:06.603Z,2.78
2023-04-27T14:15:37.309Z,2.38
2023-04-27T14:18:07.009Z,1.65
2023-04-27T14:20:35.529Z,1.92
2023-04-27T14:23:05.479Z,1.50
2023-04-27T14:25:35.493Z,1.50
2023-04-27T14:28:05.983Z,1.80
2023-04-27T14:30:34.592Z,1.77
2023-04-27T14:33:03.595Z,2.67
2023-04-27T14:35:32.064Z,6.90
2023-04-27T14:38:02.491Z,1.70
2023-04-27T14:40:31.253Z,2.13
2023-04-27T14:43:01.207Z,1.98
2023-04-27T14:45:39.715Z,1.80
2023-04-27T14:48:18.483Z,1.90
2023-04-27T14:50:46.993Z,2.25
2023-04-27T14:53:15.352Z,1.83
2023-04-27T14:55:45.856Z,2.10
2023-04-27T14:58:15.896Z,2.13
2023-04-27T15:00:44.525Z,3.35
2023-04-27T15:03:13.318Z,2.03
2023-04-27T15:05:41.943Z,2.42
2023-04-27T15:08:10.356Z,1.98
2023-04-27T15:10:38.934Z,2.35
2023-04-27T15:13:07.390Z,2.15
2023-04-27T15:15:37.303Z,2.28
2023-04-27T15:18:06.093Z,4.20
2023-04-27T15:20:34.893Z,4.25
2023-04-27T15:23:03.320Z,1.85
2023-04-27T15:25:33.752Z,2.13
2023-04-27T15:28:03.644Z,2.50
2023-04-27T15:30:32.271Z,7.70
2023-04-27T15:33:02.110Z,2.08
2023-04-27T15:35:30.682Z,2.28
2023-04-27T15:37:59.018Z,2.40
2023-04-27T15:40:27.428Z,4.25
2023-04-27T15:42:55.884Z,2.15
2023-04-27T15:45:24.791Z,1.70
2023-04-27T15:47:53.218Z,2.45
2023-04-27T15:50:24.299Z,2.78
2023-04-27T15:52:52.936Z,2.42
2023-04-27T15:55:21.626Z,2.45
2023-04-27T15:57:50.364Z,1.90
2023-04-27T16:00:22.040Z,1.75
2023-04-27T16:02:50.696Z,1.60
2023-04-27T16:05:19.562Z,2.63
2023-04-27T16:07:49.408Z,2.97
2023-04-27T16:10:17.611Z,2.03
2023-04-27T16:12:46.222Z,1.50
2023-04-27T16:15:15.022Z,2.28
2023-04-27T16:17:43.699Z,1.67
2023-04-27T16:20:12.483Z,1.77
2023-04-27T16:22:40.890Z,1.50
2023-04-27T16:25:11.648Z,2.45
2023-04-27T16:27:40.606Z,2.95
2023-04-27T16:30:09.917Z,2.85
2023-04-27T16:32:39.029Z,2.45
2023-04-27T16:35:08.464Z,2.85
2023-04-27T16:37:36.941Z,2.10
2023-04-27T16:40:07.720Z,2.60
2023-04-27T16:42:37.472Z,1.80
2023-04-27T16:45:09.140Z,3.70
2023-04-27T16:47:39.300Z,1.70
2023-04-27T16:50:08.558Z,1.70
2023-04-27T16:52:36.920Z,1.65
2023-04-27T16:55:06.079Z,3.22
2023-04-27T16:57:34.389Z,2.60
2023-04-27T17:00:06.099Z,1.98
2023-04-27T17:02:34.635Z,2.22
2023-04-27T17:05:03.844Z,2.58
2023-04-27T17:07:33.789Z,2.10
2023-04-27T17:10:02.200Z,2.88
2023-04-27T17:12:30.599Z,2.45
2023-04-27T17:14:58.876Z,2.03
2023-04-27T17:17:28.906Z,2.65
2023-04-27T17:19:57.750Z,3.42
2023-04-27T17:22:26.822Z,4.22
2023-04-27T17:24:55.354Z,4.47
2023-04-27T17:27:23.759Z,3.53
2023-04-27T17:29:52.988Z,4.28
2023-04-27T17:32:21.233Z,3.60
2023-04-27T17:34:51.041Z,3.47
2023-04-27T17:37:19.636Z,2.95
2023-04-27T17:39:48.167Z,4.88
2023-04-27T17:42:16.671Z,2.55
2023-04-27T17:44:45.072Z,2.50
2023-04-27T17:47:14.971Z,2.42
2023-04-27T17:49:43.235Z,2.83
2023-04-27T17:52:12.995Z,3.35
2023-04-27T17:54:41.906Z,3.78
2023-04-27T17:57:10.248Z,4.75
2023-04-27T17:59:39.991Z,4.90
2023-04-27T18:02:08.709Z,4.57
2023-04-27T18:04:37.188Z,6.38
2023-04-27T18:07:05.717Z,3.65
2023-04-27T18:09:36.296Z,3.20
2023-04-27T18:12:10.904Z,2.77
2023-04-27T18:14:39.927Z,3.00
2023-04-27T18:17:08.631Z,3.03
2023-04-27T18:19:36.983Z,4.47
2023-04-27T18:22:05.427Z,4.30
2023-04-27T18:24:35.071Z,4.00
2023-04-27T18:27:04.087Z,4.60
2023-04-27T18:29:33.094Z,7.23
2023-04-27T18:32:05.646Z,8.80
2023-04-27T18:34:34.362Z,5.20
2023-04-27T18:37:02.846Z,5.30
2023-04-27T18:39:31.208Z,3.90
2023-04-27T18:42:00.914Z,13.80
2023-04-27T18:44:29.593Z,3.80
2023-04-27T18:46:57.996Z,3.70
2023-04-27T18:49:26.376Z,3.50
2023-04-27T18:51:54.725Z,5.10
2023-04-27T18:54:23.089Z,5.00
2023-04-27T18:56:53.676Z,4.60
2023-04-27T18:59:23.433Z,4.03
2023-04-27T19:01:52.067Z,3.97
2023-04-27T19:04:20.718Z,3.07
2023-04-27T19:06:50.036Z,3.43
2023-04-27T19:09:19.245Z,3.37
2023-04-27T19:11:56.167Z,4.97
2023-04-27T19:14:30.155Z,3.20
2023-04-27T19:16:58.447Z,3.63
2023-04-27T19:19:27.848Z,4.00
2023-04-27T19:21:58.259Z,6.83
2023-04-27T19:24:27.601Z,4.90
2023-04-27T19:26:56.910Z,9.57
2023-04-27T19:29:26.556Z,12.37
2023-04-27T19:31:56.478Z,12.87
2023-04-27T19:34:24.798Z,14.37
2023-04-27T19:36:53.025Z,15.33
2023-04-27T19:39:21.728Z,14.77
2023-04-27T19:41:50.065Z,15.73
2023-04-27T19:44:18.395Z,16.97
2023-04-27T19:46:46.808Z,16.27
2023-04-27T19:49:16.987Z,10.93
2023-04-27T19:51:45.560Z,10.20
2023-04-27T19:54:14.513Z,7.30
2023-04-27T19:56:43.211Z,5.23
2023-04-27T19:59:11.609Z,7.27
2023-04-27T20:01:40.022Z,4.47
2023-04-27T20:04:08.468Z,4.47
2023-04-27T20:06:38.366Z,4.40
2023-04-27T20:09:06.661Z,4.87
2023-04-27T20:11:35.133Z,4.40
2023-04-27T20:14:03.513Z,5.80
2023-04-27T20:16:31.939Z,5.70
2023-04-27T20:19:00.447Z,5.47
2023-04-27T20:21:29.745Z,5.23
2023-04-27T20:23:59.557Z,4.80
2023-04-27T20:26:28.077Z,4.40
2023-04-27T20:28:56.479Z,4.90
2023-04-27T20:31:24.986Z,4.70
2023-04-27T20:33:53.733Z,3.70
2023-04-27T20:36:23.265Z,4.90
2023-04-27T20:38:52.010Z,3.93
2023-04-27T20:41:22.549Z,7.00
2023-04-27T20:43:52.573Z,6.23
2023-04-27T20:46:21.507Z,4.00
2023-04-27T20:48:49.763Z,4.13
2023-04-27T20:51:17.963Z,4.50
2023-04-27T20:53:46.263Z,3.87
2023-04-27T20:56:15.184Z,4.50
2023-04-27T20:58:44.788Z,5.80
2023-04-27T21:01:13.252Z,4.40
2023-04-27T21:03:41.883Z,5.00
2023-04-27T21:06:10.160Z,7.33
2023-04-27T21:08:38.583Z,4.57
2023-04-27T21:11:07.234Z,4.47
2023-04-27T21:13:35.476Z,4.63
2023-04-27T21:16:05.404Z,4.70
2023-04-27T21:18:34.068Z,4.60
2023-04-27T21:21:02.796Z,4.67
2023-04-27T21:23:31.036Z,5.23
2023-04-27T21:25:59.288Z,6.30
2023-04-27T21:28:27.850Z,6.20
2023-04-27T21:30:56.168Z,5.97
2023-04-27T21:33:25.846Z,8.27
2023-04-27T21:35:54.035Z,5.30
2023-04-27T21:38:22.290Z,5.93
2023-04-27T21:40:50.778Z,4.77
2023-04-27T21:43:19.380Z,6.90
2023-04-27T21:45:47.953Z,5.73
2023-04-27T21:48:16.300Z,6.97
2023-04-27T21:50:46.121Z,4.87
2023-04-27T21:53:15.760Z,7.07
2023-04-27T21:55:44.003Z,5.23
2023-04-27T21:58:12.201Z,5.37
2023-04-27T22:00:40.443Z,6.87
2023-04-27T22:03:08.931Z,5.00
2023-04-27T22:05:37.826Z,6.33
2023-04-27T22:08:08.692Z,7.00
2023-04-27T22:10:37.538Z,5.83
2023-04-27T22:13:18.886Z,6.07
2023-04-27T22:15:48.124Z,6.20
2023-04-27T22:18:16.832Z,7.63
2023-04-27T22:20:46.042Z,7.60
2023-04-27T22:23:15.629Z,8.47
2023-04-27T22:25:44.075Z,7.80
2023-04-27T22:28:12.586Z,6.37
2023-04-27T22:30:41.970Z,5.93
2023-04-27T22:33:11.015Z,5.33
2023-04-27T22:35:39.617Z,5.60
2023-04-27T22:38:08.106Z,5.10
2023-04-27T22:40:38.279Z,6.10
2023-04-27T22:43:06.598Z,5.20
2023-04-27T22:45:37.310Z,7.03
2023-04-27T22:48:07.115Z,7.00
2023-04-27T22:50:35.434Z,5.00
2023-04-27T22:53:04.632Z,7.17
2023-04-27T22:55:32.844Z,4.87
2023-04-27T22:58:02.413Z,5.80
2023-04-27T23:00:30.780Z,5.10
2023-04-27T23:02:59.257Z,5.87
2023-04-27T23:05:29.053Z,5.73
2023-04-27T23:07:57.373Z,5.77
2023-04-27T23:10:26.741Z,5.53
2023-04-27T23:12:57.107Z,5.07
2023-04-27T23:15:26.852Z,4.63
2023-04-27T23:17:55.046Z,4.60
2023-04-27T23:20:28.565Z,6.27
2023-04-27T23:22:57.660Z,4.80
2023-04-27T23:25:26.006Z,5.80
2023-04-27T23:27:54.391Z,6.73
2023-04-27T23:30:23.039Z,6.90
2023-04-27T23:32:52.752Z,7.47
2023-04-27T23:35:21.114Z,6.17
2023-04-27T23:37:49.383Z,5.60
2023-04-27T23:40:17.731Z,6.07
2023-04-27T23:42:46.032Z,5.83
2023-04-27T23:45:14.534Z,6.33
2023-04-27T23:47:43.215Z,5.07
2023-04-27T23:50:13.510Z,5.00
2023-04-27T23:52:41.844Z,5.50
2023-04-27T23:55:10.628Z,5.50
2023-04-27T23:57:38.797Z,4.57
